sensor_id;sensor_type;location;lat;lon;timestamp;P1;durP1;ratioP1;P2;durP2;ratioP2
61617;SDS011;47518;51.776;9.370;2023-04-06T00:01:01;16.13;;;12.75;;
61617;SDS011;47518;51.776;9.370;2023-04-06T00:03:27;19.40;;;11.95;;
61617;SDS011;47518;51.776;9.370;2023-04-06T00:05:52;21.13;;;13.15;;
61617;SDS011;47518;51.776;9.370;2023-04-06T00:08:18;16.05;;;12.48;;
61617;SDS011;47518;51.776;9.370;2023-04-06T00:10:43;15.35;;;11.80;;
61617;SDS011;47518;51.776;9.370;2023-04-06T00:13:08;17.63;;;11.98;;
61617;SDS011;47518;51.776;9.370;2023-04-06T00:15:34;17.48;;;12.30;;
61617;SDS011;47518;51.776;9.370;2023-04-06T00:18:00;15.17;;;10.97;;
61617;SDS011;47518;51.776;9.370;2023-04-06T00:20:25;15.15;;;11.30;;
61617;SDS011;47518;51.776;9.370;2023-04-06T00:22:50;15.52;;;9.82;;
61617;SDS011;47518;51.776;9.370;2023-04-06T00:25:16;11.07;;;8.73;;
61617;SDS011;47518;51.776;9.370;2023-04-06T00:27:41;11.02;;;8.02;;
61617;SDS011;47518;51.776;9.370;2023-04-06T00:30:07;9.93;;;7.80;;
61617;SDS011;47518;51.776;9.370;2023-04-06T00:32:34;10.02;;;8.45;;
61617;SDS011;47518;51.776;9.370;2023-04-06T00:35:01;12.95;;;8.73;;
61617;SDS011;47518;51.776;9.370;2023-04-06T00:37:27;9.93;;;8.07;;
61617;SDS011;47518;51.776;9.370;2023-04-06T00:39:53;11.10;;;7.97;;
61617;SDS011;47518;51.776;9.370;2023-04-06T00:42:18;12.55;;;8.15;;
61617;SDS011;47518;51.776;9.370;2023-04-06T00:44:50;11.35;;;8.00;;
61617;SDS011;47518;51.776;9.370;2023-04-06T00:47:17;11.40;;;8.90;;
61617;SDS011;47518;51.776;9.370;2023-04-06T00:49:42;9.35;;;7.97;;
61617;SDS011;47518;51.776;9.370;2023-04-06T00:52:07;11.23;;;8.20;;
61617;SDS011;47518;51.776;9.370;2023-04-06T00:54:33;11.32;;;8.43;;
61617;SDS011;47518;51.776;9.370;2023-04-06T00:56:58;11.10;;;8.30;;
61617;SDS011;47518;51.776;9.370;2023-04-06T00:59:23;13.00;;;8.75;;
61617;SDS011;47518;51.776;9.370;2023-04-06T01:01:49;12.27;;;8.63;;
61617;SDS011;47518;51.776;9.370;2023-04-06T01:04:14;9.18;;;7.95;;
61617;SDS011;47518;51.776;9.370;2023-04-06T01:06:40;11.82;;;8.80;;
61617;SDS011;47518;51.776;9.370;2023-04-06T01:09:05;11.18;;;8.93;;
61617;SDS011;47518;51.776;9.370;2023-04-06T01:11:31;11.95;;;8.38;;
61617;SDS011;47518;51.776;9.370;2023-04-06T01:13:56;9.57;;;8.25;;
61617;SDS011;47518;51.776;9.370;2023-04-06T01:16:21;12.10;;;8.98;;
61617;SDS011;47518;51.776;9.370;2023-04-06T01:18:47;10.20;;;8.55;;
61617;SDS011;47518;51.776;9.370;2023-04-06T01:21:12;12.30;;;8.77;;
61617;SDS011;47518;51.776;9.370;2023-04-06T01:23:47;12.52;;;9.15;;
61617;SDS011;47518;51.776;9.370;2023-04-06T01:26:13;11.98;;;9.23;;
61617;SDS011;47518;51.776;9.370;2023-04-06T01:28:38;12.00;;;8.60;;
61617;SDS011;47518;51.776;9.370;2023-04-06T01:31:05;11.30;;;8.77;;
61617;SDS011;47518;51.776;9.370;2023-04-06T01:33:32;10.87;;;9.00;;
61617;SDS011;47518;51.776;9.370;2023-04-06T01:35:57;11.38;;;8.70;;
61617;SDS011;47518;51.776;9.370;2023-04-06T01:38:22;12.93;;;9.10;;
61617;SDS011;47518;51.776;9.370;2023-04-06T01:40:48;10.95;;;8.52;;
61617;SDS011;47518;51.776;9.370;2023-04-06T01:43:13;14.68;;;9.13;;
61617;SDS011;47518;51.776;9.370;2023-04-06T01:45:38;11.77;;;9.20;;
61617;SDS011;47518;51.776;9.370;2023-04-06T01:48:04;11.43;;;8.57;;
61617;SDS011;47518;51.776;9.370;2023-04-06T01:50:30;10.80;;;8.50;;
61617;SDS011;47518;51.776;9.370;2023-04-06T01:52:55;10.60;;;8.57;;
61617;SDS011;47518;51.776;9.370;2023-04-06T01:55:20;10.37;;;7.93;;
61617;SDS011;47518;51.776;9.370;2023-04-06T01:57:46;13.35;;;9.10;;
61617;SDS011;47518;51.776;9.370;2023-04-06T02:00:11;11.90;;;8.63;;
61617;SDS011;47518;51.776;9.370;2023-04-06T02:02:37;12.52;;;9.63;;
61617;SDS011;47518;51.776;9.370;2023-04-06T02:05:03;12.70;;;9.50;;
61617;SDS011;47518;51.776;9.370;2023-04-06T02:07:28;12.50;;;9.40;;
61617;SDS011;47518;51.776;9.370;2023-04-06T02:09:54;16.03;;;10.07;;
61617;SDS011;47518;51.776;9.370;2023-04-06T02:12:20;12.00;;;9.30;;
61617;SDS011;47518;51.776;9.370;2023-04-06T02:14:46;13.43;;;8.90;;
61617;SDS011;47518;51.776;9.370;2023-04-06T02:17:11;11.20;;;9.05;;
61617;SDS011;47518;51.776;9.370;2023-04-06T02:19:36;11.90;;;9.10;;
61617;SDS011;47518;51.776;9.370;2023-04-06T02:22:02;9.93;;;8.83;;
61617;SDS011;47518;51.776;9.370;2023-04-06T02:24:27;11.30;;;9.02;;
61617;SDS011;47518;51.776;9.370;2023-04-06T02:26:52;11.80;;;9.45;;
61617;SDS011;47518;51.776;9.370;2023-04-06T02:29:18;11.83;;;9.30;;
61617;SDS011;47518;51.776;9.370;2023-04-06T02:31:43;13.57;;;9.38;;
61617;SDS011;47518;51.776;9.370;2023-04-06T02:34:08;13.57;;;9.57;;
61617;SDS011;47518;51.776;9.370;2023-04-06T02:36:36;13.23;;;9.87;;
61617;SDS011;47518;51.776;9.370;2023-04-06T02:39:02;14.30;;;10.20;;
61617;SDS011;47518;51.776;9.370;2023-04-06T02:41:28;14.52;;;10.80;;
61617;SDS011;47518;51.776;9.370;2023-04-06T02:43:53;14.90;;;10.73;;
61617;SDS011;47518;51.776;9.370;2023-04-06T02:46:18;15.90;;;11.15;;
61617;SDS011;47518;51.776;9.370;2023-04-06T02:48:44;15.32;;;11.35;;
61617;SDS011;47518;51.776;9.370;2023-04-06T02:51:09;15.33;;;11.17;;
61617;SDS011;47518;51.776;9.370;2023-04-06T02:53:35;15.90;;;10.80;;
61617;SDS011;47518;51.776;9.370;2023-04-06T02:56:00;13.32;;;9.82;;
61617;SDS011;47518;51.776;9.370;2023-04-06T02:58:25;13.50;;;10.37;;
61617;SDS011;47518;51.776;9.370;2023-04-06T03:00:51;12.47;;;9.87;;
61617;SDS011;47518;51.776;9.370;2023-04-06T03:03:16;13.87;;;10.07;;
61617;SDS011;47518;51.776;9.370;2023-04-06T03:05:42;15.13;;;9.87;;
61617;SDS011;47518;51.776;9.370;2023-04-06T03:08:07;10.60;;;9.10;;
61617;SDS011;47518;51.776;9.370;2023-04-06T03:10:33;13.55;;;9.88;;
61617;SDS011;47518;51.776;9.370;2023-04-06T03:12:58;13.53;;;9.57;;
61617;SDS011;47518;51.776;9.370;2023-04-06T03:15:23;12.27;;;9.93;;
61617;SDS011;47518;51.776;9.370;2023-04-06T03:17:48;11.63;;;9.60;;
61617;SDS011;47518;51.776;9.370;2023-04-06T03:20:14;14.65;;;10.40;;
61617;SDS011;47518;51.776;9.370;2023-04-06T03:22:40;14.30;;;10.20;;
61617;SDS011;47518;51.776;9.370;2023-04-06T03:25:06;13.37;;;10.20;;
61617;SDS011;47518;51.776;9.370;2023-04-06T03:27:31;13.27;;;10.23;;
61617;SDS011;47518;51.776;9.370;2023-04-06T03:29:57;14.30;;;10.33;;
61617;SDS011;47518;51.776;9.370;2023-04-06T03:32:23;14.53;;;10.10;;
61617;SDS011;47518;51.776;9.370;2023-04-06T03:34:48;15.20;;;10.80;;
61617;SDS011;47518;51.776;9.370;2023-04-06T03:37:13;14.40;;;10.17;;
61617;SDS011;47518;51.776;9.370;2023-04-06T03:39:39;12.23;;;10.17;;
61617;SDS011;47518;51.776;9.370;2023-04-06T03:42:05;14.93;;;11.07;;
61617;SDS011;47518;51.776;9.370;2023-04-06T03:44:31;15.93;;;10.67;;
61617;SDS011;47518;51.776;9.370;2023-04-06T03:46:56;16.57;;;11.07;;
61617;SDS011;47518;51.776;9.370;2023-04-06T03:49:22;15.50;;;11.23;;
61617;SDS011;47518;51.776;9.370;2023-04-06T03:51:50;14.53;;;10.70;;
61617;SDS011;47518;51.776;9.370;2023-04-06T03:54:15;18.80;;;11.20;;
61617;SDS011;47518;51.776;9.370;2023-04-06T03:56:41;15.57;;;11.37;;
61617;SDS011;47518;51.776;9.370;2023-04-06T03:59:06;21.07;;;12.23;;
61617;SDS011;47518;51.776;9.370;2023-04-06T04:01:31;17.27;;;12.13;;
61617;SDS011;47518;51.776;9.370;2023-04-06T04:03:57;17.97;;;12.73;;
61617;SDS011;47518;51.776;9.370;2023-04-06T04:06:22;16.77;;;11.90;;
61617;SDS011;47518;51.776;9.370;2023-04-06T04:08:50;20.75;;;11.65;;
61617;SDS011;47518;51.776;9.370;2023-04-06T04:11:16;16.63;;;11.60;;
61617;SDS011;47518;51.776;9.370;2023-04-06T04:13:41;17.73;;;11.80;;
61617;SDS011;47518;51.776;9.370;2023-04-06T04:16:06;16.43;;;11.53;;
61617;SDS011;47518;51.776;9.370;2023-04-06T04:18:32;16.07;;;11.27;;
61617;SDS011;47518;51.776;9.370;2023-04-06T04:20:57;19.43;;;12.03;;
61617;SDS011;47518;51.776;9.370;2023-04-06T04:23:22;17.70;;;11.37;;
61617;SDS011;47518;51.776;9.370;2023-04-06T04:25:48;17.47;;;11.67;;
61617;SDS011;47518;51.776;9.370;2023-04-06T04:28:13;21.10;;;12.10;;
61617;SDS011;47518;51.776;9.370;2023-04-06T04:30:39;16.00;;;12.23;;
61617;SDS011;47518;51.776;9.370;2023-04-06T04:33:04;15.00;;;10.90;;
61617;SDS011;47518;51.776;9.370;2023-04-06T04:35:29;14.63;;;10.67;;
61617;SDS011;47518;51.776;9.370;2023-04-06T04:37:55;14.30;;;10.90;;
61617;SDS011;47518;51.776;9.370;2023-04-06T04:40:21;18.87;;;11.20;;
61617;SDS011;47518;51.776;9.370;2023-04-06T04:42:46;14.20;;;10.47;;
61617;SDS011;47518;51.776;9.370;2023-04-06T04:45:12;14.77;;;10.33;;
61617;SDS011;47518;51.776;9.370;2023-04-06T04:47:37;14.60;;;10.63;;
61617;SDS011;47518;51.776;9.370;2023-04-06T04:50:03;14.20;;;10.67;;
61617;SDS011;47518;51.776;9.370;2023-04-06T04:52:28;14.97;;;10.70;;
61617;SDS011;47518;51.776;9.370;2023-04-06T04:54:54;13.40;;;10.20;;
61617;SDS011;47518;51.776;9.370;2023-04-06T04:57:19;16.77;;;11.10;;
61617;SDS011;47518;51.776;9.370;2023-04-06T04:59:44;16.83;;;11.50;;
61617;SDS011;47518;51.776;9.370;2023-04-06T05:02:10;18.73;;;11.03;;
61617;SDS011;47518;51.776;9.370;2023-04-06T05:04:35;18.43;;;11.53;;
61617;SDS011;47518;51.776;9.370;2023-04-06T05:07:08;17.33;;;12.00;;
61617;SDS011;47518;51.776;9.370;2023-04-06T05:09:34;17.50;;;11.50;;
61617;SDS011;47518;51.776;9.370;2023-04-06T05:12:00;15.70;;;12.00;;
61617;SDS011;47518;51.776;9.370;2023-04-06T05:14:26;18.73;;;11.67;;
61617;SDS011;47518;51.776;9.370;2023-04-06T05:16:51;16.27;;;12.07;;
61617;SDS011;47518;51.776;9.370;2023-04-06T05:19:17;20.57;;;12.17;;
61617;SDS011;47518;51.776;9.370;2023-04-06T05:21:42;20.00;;;12.87;;
61617;SDS011;47518;51.776;9.370;2023-04-06T05:24:08;19.65;;;12.38;;
61617;SDS011;47518;51.776;9.370;2023-04-06T05:26:33;14.50;;;11.07;;
61617;SDS011;47518;51.776;9.370;2023-04-06T05:28:59;16.70;;;11.40;;
61617;SDS011;47518;51.776;9.370;2023-04-06T05:31:24;17.00;;;11.60;;
61617;SDS011;47518;51.776;9.370;2023-04-06T05:33:56;16.97;;;12.20;;
61617;SDS011;47518;51.776;9.370;2023-04-06T05:36:22;16.98;;;11.57;;
61617;SDS011;47518;51.776;9.370;2023-04-06T05:38:47;15.70;;;11.50;;
61617;SDS011;47518;51.776;9.370;2023-04-06T05:41:12;19.50;;;11.37;;
61617;SDS011;47518;51.776;9.370;2023-04-06T05:43:38;17.70;;;11.90;;
61617;SDS011;47518;51.776;9.370;2023-04-06T05:46:03;17.33;;;11.80;;
61617;SDS011;47518;51.776;9.370;2023-04-06T05:48:29;19.08;;;11.55;;
61617;SDS011;47518;51.776;9.370;2023-04-06T05:50:54;17.17;;;11.20;;
61617;SDS011;47518;51.776;9.370;2023-04-06T05:53:19;15.85;;;11.27;;
61617;SDS011;47518;51.776;9.370;2023-04-06T05:55:46;15.07;;;11.73;;
61617;SDS011;47518;51.776;9.370;2023-04-06T05:58:11;16.90;;;11.90;;
61617;SDS011;47518;51.776;9.370;2023-04-06T06:00:37;23.33;;;12.45;;
61617;SDS011;47518;51.776;9.370;2023-04-06T06:03:02;23.90;;;12.73;;
61617;SDS011;47518;51.776;9.370;2023-04-06T06:05:29;27.13;;;12.48;;
61617;SDS011;47518;51.776;9.370;2023-04-06T06:07:55;19.35;;;12.55;;
61617;SDS011;47518;51.776;9.370;2023-04-06T06:24:45;21.10;;;15.25;;
61617;SDS011;47518;51.776;9.370;2023-04-06T06:27:11;20.20;;;14.52;;
61617;SDS011;47518;51.776;9.370;2023-04-06T06:29:36;20.40;;;14.05;;
61617;SDS011;47518;51.776;9.370;2023-04-06T06:32:02;23.60;;;13.98;;
61617;SDS011;47518;51.776;9.370;2023-04-06T06:34:27;20.63;;;13.55;;
61617;SDS011;47518;51.776;9.370;2023-04-06T06:36:52;19.75;;;14.18;;
61617;SDS011;47518;51.776;9.370;2023-04-06T06:39:20;20.75;;;13.88;;
61617;SDS011;47518;51.776;9.370;2023-04-06T06:41:45;19.40;;;14.82;;
61617;SDS011;47518;51.776;9.370;2023-04-06T06:44:11;20.67;;;14.40;;
61617;SDS011;47518;51.776;9.370;2023-04-06T06:46:39;20.10;;;14.52;;
61617;SDS011;47518;51.776;9.370;2023-04-06T06:49:05;19.75;;;14.30;;
61617;SDS011;47518;51.776;9.370;2023-04-06T06:51:30;20.30;;;14.23;;
61617;SDS011;47518;51.776;9.370;2023-04-06T06:53:55;17.77;;;13.98;;
61617;SDS011;47518;51.776;9.370;2023-04-06T06:56:21;15.85;;;13.38;;
61617;SDS011;47518;51.776;9.370;2023-04-06T06:58:46;18.65;;;13.85;;
61617;SDS011;47518;51.776;9.370;2023-04-06T07:01:12;19.85;;;13.63;;
61617;SDS011;47518;51.776;9.370;2023-04-06T07:03:38;18.02;;;12.80;;
61617;SDS011;47518;51.776;9.370;2023-04-06T07:06:09;19.58;;;13.00;;
61617;SDS011;47518;51.776;9.370;2023-04-06T07:08:38;17.25;;;12.50;;
61617;SDS011;47518;51.776;9.370;2023-04-06T07:11:03;16.40;;;12.35;;
61617;SDS011;47518;51.776;9.370;2023-04-06T07:13:28;17.55;;;12.07;;
61617;SDS011;47518;51.776;9.370;2023-04-06T07:15:54;19.40;;;12.50;;
61617;SDS011;47518;51.776;9.370;2023-04-06T07:18:19;16.65;;;12.82;;
61617;SDS011;47518;51.776;9.370;2023-04-06T07:20:45;15.10;;;11.63;;
61617;SDS011;47518;51.776;9.370;2023-04-06T07:23:11;19.48;;;11.20;;
61617;SDS011;47518;51.776;9.370;2023-04-06T07:25:37;17.45;;;11.80;;
61617;SDS011;47518;51.776;9.370;2023-04-06T07:28:03;16.13;;;10.40;;
61617;SDS011;47518;51.776;9.370;2023-04-06T07:30:31;13.93;;;9.95;;
61617;SDS011;47518;51.776;9.370;2023-04-06T07:32:57;13.52;;;10.27;;
61617;SDS011;47518;51.776;9.370;2023-04-06T07:35:23;15.27;;;9.88;;
61617;SDS011;47518;51.776;9.370;2023-04-06T07:37:49;13.90;;;9.75;;
61617;SDS011;47518;51.776;9.370;2023-04-06T07:40:15;14.60;;;9.60;;
61617;SDS011;47518;51.776;9.370;2023-04-06T07:42:40;15.45;;;9.52;;
61617;SDS011;47518;51.776;9.370;2023-04-06T07:45:06;15.10;;;9.57;;
61617;SDS011;47518;51.776;9.370;2023-04-06T07:47:32;15.82;;;9.85;;
61617;SDS011;47518;51.776;9.370;2023-04-06T07:49:58;13.63;;;9.73;;
61617;SDS011;47518;51.776;9.370;2023-04-06T07:52:23;13.77;;;10.13;;
61617;SDS011;47518;51.776;9.370;2023-04-06T07:54:48;13.55;;;10.07;;
61617;SDS011;47518;51.776;9.370;2023-04-06T07:57:14;14.30;;;9.98;;
61617;SDS011;47518;51.776;9.370;2023-04-06T07:59:39;14.00;;;9.73;;
61617;SDS011;47518;51.776;9.370;2023-04-06T08:02:05;14.88;;;10.18;;
61617;SDS011;47518;51.776;9.370;2023-04-06T08:04:30;14.35;;;9.75;;
61617;SDS011;47518;51.776;9.370;2023-04-06T08:06:56;17.45;;;10.30;;
61617;SDS011;47518;51.776;9.370;2023-04-06T08:09:21;14.65;;;10.57;;
61617;SDS011;47518;51.776;9.370;2023-04-06T08:11:46;14.23;;;10.00;;
61617;SDS011;47518;51.776;9.370;2023-04-06T08:14:13;19.45;;;10.40;;
61617;SDS011;47518;51.776;9.370;2023-04-06T08:16:40;14.30;;;9.98;;
61617;SDS011;47518;51.776;9.370;2023-04-06T08:19:05;16.45;;;10.32;;
61617;SDS011;47518;51.776;9.370;2023-04-06T08:21:32;15.27;;;9.77;;
61617;SDS011;47518;51.776;9.370;2023-04-06T08:23:58;15.82;;;10.20;;
61617;SDS011;47518;51.776;9.370;2023-04-06T08:26:23;14.57;;;10.27;;
61617;SDS011;47518;51.776;9.370;2023-04-06T08:28:48;14.27;;;10.52;;
61617;SDS011;47518;51.776;9.370;2023-04-06T08:31:14;16.05;;;10.25;;
61617;SDS011;47518;51.776;9.370;2023-04-06T08:33:39;15.40;;;10.15;;
61617;SDS011;47518;51.776;9.370;2023-04-06T08:36:07;17.48;;;10.23;;
61617;SDS011;47518;51.776;9.370;2023-04-06T08:38:33;15.25;;;10.48;;
61617;SDS011;47518;51.776;9.370;2023-04-06T08:40:59;13.85;;;9.63;;
61617;SDS011;47518;51.776;9.370;2023-04-06T08:43:24;14.32;;;9.77;;
61617;SDS011;47518;51.776;9.370;2023-04-06T08:45:52;17.38;;;10.30;;
61617;SDS011;47518;51.776;9.370;2023-04-06T08:48:17;13.55;;;10.38;;
61617;SDS011;47518;51.776;9.370;2023-04-06T08:50:43;14.90;;;10.50;;
61617;SDS011;47518;51.776;9.370;2023-04-06T08:53:09;17.15;;;10.60;;
61617;SDS011;47518;51.776;9.370;2023-04-06T08:55:36;14.60;;;9.88;;
61617;SDS011;47518;51.776;9.370;2023-04-06T08:58:02;15.73;;;10.38;;
61617;SDS011;47518;51.776;9.370;2023-04-06T09:00:29;14.07;;;10.30;;
61617;SDS011;47518;51.776;9.370;2023-04-06T09:02:54;12.85;;;9.68;;
61617;SDS011;47518;51.776;9.370;2023-04-06T09:05:22;16.73;;;10.35;;
61617;SDS011;47518;51.776;9.370;2023-04-06T09:07:50;16.83;;;10.18;;
61617;SDS011;47518;51.776;9.370;2023-04-06T09:10:16;16.85;;;10.20;;
61617;SDS011;47518;51.776;9.370;2023-04-06T09:12:42;14.60;;;10.40;;
61617;SDS011;47518;51.776;9.370;2023-04-06T09:15:16;14.10;;;10.43;;
61617;SDS011;47518;51.776;9.370;2023-04-06T09:17:44;14.57;;;10.38;;
61617;SDS011;47518;51.776;9.370;2023-04-06T09:20:11;14.75;;;10.77;;
61617;SDS011;47518;51.776;9.370;2023-04-06T09:22:37;15.13;;;10.75;;
61617;SDS011;47518;51.776;9.370;2023-04-06T09:25:04;16.45;;;10.52;;
61617;SDS011;47518;51.776;9.370;2023-04-06T09:27:33;14.63;;;10.57;;
61617;SDS011;47518;51.776;9.370;2023-04-06T09:30:08;15.95;;;10.73;;
61617;SDS011;47518;51.776;9.370;2023-04-06T09:32:46;14.95;;;11.30;;
61617;SDS011;47518;51.776;9.370;2023-04-06T09:35:15;15.25;;;10.80;;
61617;SDS011;47518;51.776;9.370;2023-04-06T09:37:42;13.90;;;10.80;;
61617;SDS011;47518;51.776;9.370;2023-04-06T09:40:08;16.10;;;10.35;;
61617;SDS011;47518;51.776;9.370;2023-04-06T09:42:34;15.75;;;10.73;;
61617;SDS011;47518;51.776;9.370;2023-04-06T09:45:01;13.93;;;10.15;;
61617;SDS011;47518;51.776;9.370;2023-04-06T09:47:27;13.38;;;9.75;;
61617;SDS011;47518;51.776;9.370;2023-04-06T09:49:56;14.35;;;10.52;;
61617;SDS011;47518;51.776;9.370;2023-04-06T09:52:26;15.73;;;10.68;;
61617;SDS011;47518;51.776;9.370;2023-04-06T09:54:57;14.27;;;10.85;;
61617;SDS011;47518;51.776;9.370;2023-04-06T09:57:29;14.80;;;10.50;;
61617;SDS011;47518;51.776;9.370;2023-04-06T10:02:45;13.70;;;10.48;;
61617;SDS011;47518;51.776;9.370;2023-04-06T10:07:56;13.20;;;10.45;;
61617;SDS011;47518;51.776;9.370;2023-04-06T10:10:25;14.85;;;10.02;;
61617;SDS011;47518;51.776;9.370;2023-04-06T10:12:50;14.52;;;10.05;;
61617;SDS011;47518;51.776;9.370;2023-04-06T10:15:16;14.60;;;9.55;;
61617;SDS011;47518;51.776;9.370;2023-04-06T10:17:43;14.57;;;10.32;;
61617;SDS011;47518;51.776;9.370;2023-04-06T10:20:11;16.17;;;10.25;;
61617;SDS011;47518;51.776;9.370;2023-04-06T10:22:44;15.98;;;10.18;;
61617;SDS011;47518;51.776;9.370;2023-04-06T10:25:26;20.80;;;11.10;;
61617;SDS011;47518;51.776;9.370;2023-04-06T10:27:58;14.30;;;10.50;;
61617;SDS011;47518;51.776;9.370;2023-04-06T10:30:24;13.35;;;10.13;;
61617;SDS011;47518;51.776;9.370;2023-04-06T10:32:51;14.48;;;10.38;;
61617;SDS011;47518;51.776;9.370;2023-04-06T10:35:16;13.85;;;10.43;;
61617;SDS011;47518;51.776;9.370;2023-04-06T10:40:28;13.60;;;10.30;;
61617;SDS011;47518;51.776;9.370;2023-04-06T10:42:54;14.57;;;9.82;;
61617;SDS011;47518;51.776;9.370;2023-04-06T10:45:24;15.82;;;10.85;;
61617;SDS011;47518;51.776;9.370;2023-04-06T10:47:52;12.88;;;10.15;;
61617;SDS011;47518;51.776;9.370;2023-04-06T10:50:18;13.10;;;10.25;;
61617;SDS011;47518;51.776;9.370;2023-04-06T10:52:45;13.23;;;10.50;;
61617;SDS011;47518;51.776;9.370;2023-04-06T10:55:11;15.75;;;10.65;;
61617;SDS011;47518;51.776;9.370;2023-04-06T10:57:41;15.77;;;10.82;;
61617;SDS011;47518;51.776;9.370;2023-04-06T11:00:07;12.90;;;10.23;;
61617;SDS011;47518;51.776;9.370;2023-04-06T11:02:34;13.02;;;10.20;;
61617;SDS011;47518;51.776;9.370;2023-04-06T11:05:01;14.85;;;10.68;;
61617;SDS011;47518;51.776;9.370;2023-04-06T11:07:27;13.90;;;10.90;;
61617;SDS011;47518;51.776;9.370;2023-04-06T11:09:54;11.50;;;9.77;;
61617;SDS011;47518;51.776;9.370;2023-04-06T11:12:21;13.65;;;10.65;;
61617;SDS011;47518;51.776;9.370;2023-04-06T11:15:03;13.77;;;10.60;;
61617;SDS011;47518;51.776;9.370;2023-04-06T11:17:31;15.18;;;10.80;;
61617;SDS011;47518;51.776;9.370;2023-04-06T11:19:58;15.68;;;11.23;;
61617;SDS011;47518;51.776;9.370;2023-04-06T11:22:25;13.55;;;10.90;;
61617;SDS011;47518;51.776;9.370;2023-04-06T11:24:51;16.40;;;11.50;;
61617;SDS011;47518;51.776;9.370;2023-04-06T11:27:17;15.40;;;11.68;;
61617;SDS011;47518;51.776;9.370;2023-04-06T11:29:44;15.73;;;11.93;;
61617;SDS011;47518;51.776;9.370;2023-04-06T11:32:11;14.75;;;11.98;;
61617;SDS011;47518;51.776;9.370;2023-04-06T11:34:37;15.10;;;12.50;;
61617;SDS011;47518;51.776;9.370;2023-04-06T11:37:08;17.33;;;13.00;;
61617;SDS011;47518;51.776;9.370;2023-04-06T11:39:38;17.25;;;12.02;;
61617;SDS011;47518;51.776;9.370;2023-04-06T11:42:06;17.40;;;13.05;;
61617;SDS011;47518;51.776;9.370;2023-04-06T11:44:39;15.18;;;12.05;;
61617;SDS011;47518;51.776;9.370;2023-04-06T11:47:09;16.67;;;11.80;;
61617;SDS011;47518;51.776;9.370;2023-04-06T11:49:37;16.08;;;12.45;;
61617;SDS011;47518;51.776;9.370;2023-04-06T11:52:13;16.33;;;12.57;;
61617;SDS011;47518;51.776;9.370;2023-04-06T11:54:40;15.98;;;12.77;;
61617;SDS011;47518;51.776;9.370;2023-04-06T11:57:05;17.15;;;12.07;;
61617;SDS011;47518;51.776;9.370;2023-04-06T11:59:32;16.05;;;12.77;;
61617;SDS011;47518;51.776;9.370;2023-04-06T12:01:58;17.20;;;12.93;;
61617;SDS011;47518;51.776;9.370;2023-04-06T12:04:23;19.38;;;12.60;;
61617;SDS011;47518;51.776;9.370;2023-04-06T12:06:49;17.83;;;12.45;;
61617;SDS011;47518;51.776;9.370;2023-04-06T12:09:15;19.33;;;12.20;;
61617;SDS011;47518;51.776;9.370;2023-04-06T12:11:42;17.98;;;12.40;;
61617;SDS011;47518;51.776;9.370;2023-04-06T12:14:08;16.83;;;12.70;;
61617;SDS011;47518;51.776;9.370;2023-04-06T12:16:34;20.10;;;13.07;;
61617;SDS011;47518;51.776;9.370;2023-04-06T12:18:59;15.90;;;12.60;;
61617;SDS011;47518;51.776;9.370;2023-04-06T12:21:27;15.60;;;12.52;;
61617;SDS011;47518;51.776;9.370;2023-04-06T12:23:53;18.17;;;13.30;;
61617;SDS011;47518;51.776;9.370;2023-04-06T12:26:19;18.50;;;13.10;;
61617;SDS011;47518;51.776;9.370;2023-04-06T12:28:45;18.40;;;13.02;;
61617;SDS011;47518;51.776;9.370;2023-04-06T12:31:14;15.35;;;13.00;;
61617;SDS011;47518;51.776;9.370;2023-04-06T12:33:41;18.88;;;13.25;;
61617;SDS011;47518;51.776;9.370;2023-04-06T12:36:11;17.48;;;13.43;;
61617;SDS011;47518;51.776;9.370;2023-04-06T12:41:04;14.60;;;11.95;;
61617;SDS011;47518;51.776;9.370;2023-04-06T12:43:30;15.15;;;12.57;;
61617;SDS011;47518;51.776;9.370;2023-04-06T12:45:55;16.48;;;13.13;;
61617;SDS011;47518;51.776;9.370;2023-04-06T12:48:21;16.05;;;13.65;;
61617;SDS011;47518;51.776;9.370;2023-04-06T12:50:53;15.65;;;12.55;;
61617;SDS011;47518;51.776;9.370;2023-04-06T12:53:20;16.85;;;13.95;;
61617;SDS011;47518;51.776;9.370;2023-04-06T12:55:45;17.40;;;13.95;;
61617;SDS011;47518;51.776;9.370;2023-04-06T12:58:11;20.25;;;14.45;;
61617;SDS011;47518;51.776;9.370;2023-04-06T13:00:36;19.63;;;14.23;;
61617;SDS011;47518;51.776;9.370;2023-04-06T13:03:01;18.75;;;14.48;;
61617;SDS011;47518;51.776;9.370;2023-04-06T13:05:27;20.42;;;15.00;;
61617;SDS011;47518;51.776;9.370;2023-04-06T13:07:52;19.48;;;15.55;;
61617;SDS011;47518;51.776;9.370;2023-04-06T13:10:18;19.92;;;14.98;;
61617;SDS011;47518;51.776;9.370;2023-04-06T13:12:43;21.17;;;14.85;;
61617;SDS011;47518;51.776;9.370;2023-04-06T13:15:08;21.58;;;14.77;;
61617;SDS011;47518;51.776;9.370;2023-04-06T13:17:34;17.85;;;13.88;;
61617;SDS011;47518;51.776;9.370;2023-04-06T13:20:00;17.95;;;13.50;;
61617;SDS011;47518;51.776;9.370;2023-04-06T13:22:25;18.80;;;14.23;;
61617;SDS011;47518;51.776;9.370;2023-04-06T13:24:50;19.88;;;14.60;;
61617;SDS011;47518;51.776;9.370;2023-04-06T13:27:16;19.05;;;14.68;;
61617;SDS011;47518;51.776;9.370;2023-04-06T13:29:41;19.42;;;14.70;;
61617;SDS011;47518;51.776;9.370;2023-04-06T13:32:06;21.25;;;14.48;;
61617;SDS011;47518;51.776;9.370;2023-04-06T13:34:34;17.83;;;13.90;;
61617;SDS011;47518;51.776;9.370;2023-04-06T13:37:00;19.80;;;13.55;;
61617;SDS011;47518;51.776;9.370;2023-04-06T13:39:25;14.40;;;11.93;;
61617;SDS011;47518;51.776;9.370;2023-04-06T13:41:53;17.42;;;13.27;;
61617;SDS011;47518;51.776;9.370;2023-04-06T13:44:21;17.42;;;12.63;;
61617;SDS011;47518;51.776;9.370;2023-04-06T13:46:46;16.58;;;11.80;;
61617;SDS011;47518;51.776;9.370;2023-04-06T13:49:13;14.68;;;11.60;;
61617;SDS011;47518;51.776;9.370;2023-04-06T13:51:38;14.52;;;11.13;;
61617;SDS011;47518;51.776;9.370;2023-04-06T13:54:04;14.38;;;10.70;;
61617;SDS011;47518;51.776;9.370;2023-04-06T13:56:29;13.68;;;10.48;;
61617;SDS011;47518;51.776;9.370;2023-04-06T13:58:56;13.93;;;10.52;;
61617;SDS011;47518;51.776;9.370;2023-04-06T14:01:21;12.88;;;9.68;;
61617;SDS011;47518;51.776;9.370;2023-04-06T14:03:48;12.25;;;9.23;;
61617;SDS011;47518;51.776;9.370;2023-04-06T14:06:14;14.40;;;10.68;;
61617;SDS011;47518;51.776;9.370;2023-04-06T14:08:39;14.43;;;11.05;;
61617;SDS011;47518;51.776;9.370;2023-04-06T14:11:06;13.38;;;10.75;;
61617;SDS011;47518;51.776;9.370;2023-04-06T14:13:35;14.68;;;10.88;;
61617;SDS011;47518;51.776;9.370;2023-04-06T14:16:00;12.45;;;10.60;;
61617;SDS011;47518;51.776;9.370;2023-04-06T14:18:26;15.48;;;10.50;;
61617;SDS011;47518;51.776;9.370;2023-04-06T14:20:56;13.13;;;10.45;;
61617;SDS011;47518;51.776;9.370;2023-04-06T14:23:22;13.40;;;10.07;;
61617;SDS011;47518;51.776;9.370;2023-04-06T14:25:50;12.65;;;9.82;;
61617;SDS011;47518;51.776;9.370;2023-04-06T14:28:16;12.57;;;10.02;;
61617;SDS011;47518;51.776;9.370;2023-04-06T14:30:41;13.10;;;10.25;;
61617;SDS011;47518;51.776;9.370;2023-04-06T14:33:07;13.63;;;10.10;;
61617;SDS011;47518;51.776;9.370;2023-04-06T14:35:32;14.68;;;10.70;;
61617;SDS011;47518;51.776;9.370;2023-04-06T14:37:58;15.15;;;10.82;;
61617;SDS011;47518;51.776;9.370;2023-04-06T14:40:24;14.43;;;10.82;;
61617;SDS011;47518;51.776;9.370;2023-04-06T14:42:49;13.85;;;10.60;;
61617;SDS011;47518;51.776;9.370;2023-04-06T14:45:16;14.48;;;10.35;;